KAXN/AXN METAR and TAF weather

Enter ICAO airport designator
Station Type Date Time Source
KAXN METAR 2020/09/20 14:53 UTC NOAA

KAXN 201453Z AUTO 16019G27KT 10SM CLR 17/11 A3003 RMK AO2 PK WND 17027/1449 SLP169 T01670106 56001


Station Type Date Time Source
KAXN Decoded METAR 2020/09/20 14:53 UTC NOAA

CHANDLER FIELD, MN, United States (KAXN) 45-52N 095-24W 433M
Sep 20, 2020 - 10:53 AM EDT / 2020.09.20 1453 UTC
Wind: from the SSE (160 degrees) at 22 MPH (19 KT) gusting to 31 MPH (27 KT):0
Visibility: 10 mile(s):0
Sky conditions: clear
Temperature: 62.1 F (16.7 C)
Dew Point: 51.1 F (10.6 C)
Relative Humidity: 67%
Pressure (altimeter): 30.03 in. Hg (1016 hPa)
Pressure tendency: 0.00 inches (0.1 hPa) lower than three hours ago
ob: KAXN 201453Z AUTO 16019G27KT 10SM CLR 17/11 A3003 RMK AO2 PK WND 17027/1449 SLP169 T01670106 56001
cycle: 15

Station Type Date Time Source
KAXN TAF 2020/09/20 12:33 UTC NOAA

TAF KAXN 201131Z 2012/2112 16018G27KT P6SM SCT250
FM201600 18023G35KT P6SM FEW120 BKN250
FM210000 18015G24KT P6SM SCT080 BKN200
FM210600 19012KT P6SM SCT250

Example: see airport list